Time;durP1;ratioP1;P1;durP2;ratioP2;P2;SDS_P1;SDS_P2;PMS_P1;PMS_P2;Temp;Humidity;BMP_temperature;BMP_pressure;BME280_temperature;BME280_humidity;BME280_pressure;Samples;Min_cycle;Max_cycle;Signal;HPM_P1;HPM_P2
2023/06/15 00:01:06;;;;;;;16.13;14.47;;;13.30;68.60;;;;;;5053068;28;20179;-87
2023/06/15 00:03:32;;;;;;;28.97;16.57;;;13.30;68.60;;;;;;5052155;28;20245;-88
2023/06/15 00:05:57;;;;;;;19.33;14.23;;;13.30;68.40;;;;;;5052159;28;20245;-88
2023/06/15 00:08:23;;;;;;;21.77;13.27;;;13.30;68.30;;;;;;5053670;28;20183;-88
2023/06/15 00:10:48;;;;;;;15.47;13.93;;;13.20;68.40;;;;;;5051933;28;20222;-87
2023/06/15 00:13:15;;;;;;;14.97;13.83;;;13.20;68.40;;;;;;5053280;28;20720;-88
2023/06/15 00:15:40;;;;;;;15.27;13.80;;;13.30;68.20;;;;;;5052206;28;20259;-88
2023/06/15 00:18:06;;;;;;;16.00;13.90;;;13.20;68.30;;;;;;5053526;28;20203;-87
2023/06/15 00:20:32;;;;;;;14.57;13.57;;;13.20;68.70;;;;;;5052833;28;20226;-88
2023/06/15 00:22:58;;;;;;;15.37;13.80;;;13.20;69.00;;;;;;5051782;28;20198;-87
2023/06/15 00:25:24;;;;;;;15.13;14.03;;;13.20;69.10;;;;;;5051871;28;20186;-88
2023/06/15 00:27:50;;;;;;;15.53;14.43;;;13.20;69.10;;;;;;5051601;28;20527;-88
2023/06/15 00:30:17;;;;;;;16.00;14.10;;;13.20;68.90;;;;;;5052048;28;20208;-88
2023/06/15 00:32:43;;;;;;;20.00;14.10;;;13.20;68.80;;;;;;5051687;28;20202;-88
2023/06/15 00:35:09;;;;;;;16.83;13.60;;;13.20;68.70;;;;;;5051794;28;20211;-88
2023/06/15 00:37:35;;;;;;;15.47;13.67;;;13.10;68.80;;;;;;5051731;28;20179;-88
2023/06/15 00:40:00;;;;;;;15.90;14.40;;;13.10;69.10;;;;;;5053069;28;20200;-88
2023/06/15 00:42:29;;;;;;;14.10;13.13;;;13.00;69.30;;;;;;5053407;28;20274;-88
2023/06/15 00:44:55;;;;;;;14.37;13.10;;;13.00;69.50;;;;;;5052500;28;20191;-88
2023/06/15 00:47:21;;;;;;;14.17;13.07;;;12.90;69.60;;;;;;5051591;28;20180;-88
2023/06/15 00:49:47;;;;;;;14.93;13.70;;;12.90;69.80;;;;;;5051663;28;20207;-88
2023/06/15 00:52:16;;;;;;;13.93;12.93;;;12.90;69.90;;;;;;5051613;28;20249;-88
2023/06/15 00:54:43;;;;;;;14.60;13.30;;;12.90;69.80;;;;;;5052450;28;20172;-88
2023/06/15 00:57:10;;;;;;;14.33;13.17;;;12.90;69.80;;;;;;5052842;28;20175;-87
2023/06/15 00:59:37;;;;;;;16.10;14.20;;;12.90;69.70;;;;;;5052721;28;20172;-88
2023/06/15 01:02:03;;;;;;;14.73;13.30;;;13.00;69.50;;;;;;5051478;28;20306;-88
2023/06/15 01:04:29;;;;;;;13.83;12.57;;;12.90;69.60;;;;;;5051493;28;20226;-88
2023/06/15 01:07:02;;;;;;;15.23;13.03;;;13.00;69.70;;;;;;5053010;28;20180;-88
2023/06/15 01:09:30;;;;;;;14.60;13.30;;;12.90;69.90;;;;;;5051348;28;20196;-88
2023/06/15 01:11:58;;;;;;;14.93;13.83;;;12.90;70.10;;;;;;5051303;28;20172;-88
2023/06/15 01:14:27;;;;;;;14.50;13.43;;;12.80;70.80;;;;;;5052658;28;20230;-88
2023/06/15 01:16:59;;;;;;;14.20;12.40;;;12.80;71.20;;;;;;5052650;28;20179;-88
2023/06/15 01:19:54;;;;;;;13.83;12.73;;;12.70;71.40;;;;;;5051674;28;20668;-88
2023/06/15 01:22:41;;;;;;;13.87;12.80;;;12.70;71.50;;;;;;5051238;28;20580;-88
2023/06/15 01:25:29;;;;;;;14.10;12.37;;;12.70;71.40;;;;;;5031389;28;20725;-88
2023/06/15 01:27:58;;;;;;;13.87;12.50;;;12.60;71.40;;;;;;5051098;28;20253;-87
2023/06/15 01:30:26;;;;;;;14.90;13.63;;;12.60;71.40;;;;;;5051929;28;20558;-88
2023/06/15 01:32:53;;;;;;;14.17;13.10;;;12.60;71.30;;;;;;5053287;28;20199;-88
2023/06/15 01:35:18;;;;;;;14.10;13.10;;;12.50;71.30;;;;;;5055085;28;20262;-87
2023/06/15 01:37:44;;;;;;;14.30;13.10;;;12.50;71.30;;;;;;5054950;28;20211;-87
2023/06/15 01:40:11;;;;;;;14.10;12.97;;;12.40;71.30;;;;;;5054847;28;20233;-87
2023/06/15 01:42:37;;;;;;;14.37;13.07;;;12.50;71.50;;;;;;5055285;28;20621;-87
2023/06/15 01:45:03;;;;;;;14.27;12.87;;;12.60;71.40;;;;;;5054862;28;20222;-87
2023/06/15 01:47:29;;;;;;;14.00;12.80;;;12.50;71.20;;;;;;5054736;28;20562;-87
2023/06/15 01:49:55;;;;;;;14.37;13.07;;;12.50;71.30;;;;;;5054568;28;20294;-87
2023/06/15 01:52:21;;;;;;;13.57;12.57;;;12.50;71.20;;;;;;5054602;28;20200;-86
2023/06/15 01:54:47;;;;;;;14.43;13.33;;;12.40;71.40;;;;;;5054626;28;20270;-87
2023/06/15 01:57:12;;;;;;;14.23;13.13;;;12.40;71.70;;;;;;5055282;28;20581;-87
2023/06/15 01:59:38;;;;;;;14.27;13.07;;;12.30;71.40;;;;;;5055883;28;20527;-87
2023/06/15 02:02:04;;;;;;;14.03;12.40;;;12.30;71.60;;;;;;5054415;28;20226;-87
2023/06/15 02:04:30;;;;;;;13.93;12.83;;;12.30;71.80;;;;;;5054362;28;20176;-87
2023/06/15 02:06:57;;;;;;;14.03;12.70;;;12.40;71.90;;;;;;5054297;28;20183;-87
2023/06/15 02:09:22;;;;;;;13.87;12.77;;;12.30;71.80;;;;;;5054218;28;20709;-87
2023/06/15 02:11:48;;;;;;;13.40;12.27;;;12.30;71.70;;;;;;5054465;28;20180;-87
2023/06/15 02:14:17;;;;;;;13.27;12.27;;;12.30;71.50;;;;;;5054174;28;20186;-87
2023/06/15 02:16:43;;;;;;;13.57;12.60;;;12.20;71.80;;;;;;5054222;28;20540;-87
2023/06/15 02:19:08;;;;;;;13.87;12.67;;;12.30;71.40;;;;;;5054141;28;20262;-87
2023/06/15 02:21:35;;;;;;;14.20;12.77;;;12.30;71.10;;;;;;5053952;28;20670;-87
2023/06/15 02:24:00;;;;;;;14.40;13.33;;;12.30;71.10;;;;;;5055241;28;20191;-87
2023/06/15 02:26:26;;;;;;;14.30;12.97;;;12.20;71.30;;;;;;5053916;28;20229;-87
2023/06/15 02:28:51;;;;;;;14.63;13.33;;;12.20;71.60;;;;;;5053847;28;20196;-87
2023/06/15 02:31:17;;;;;;;15.17;13.63;;;12.10;71.90;;;;;;5053883;28;20226;-87
2023/06/15 02:33:42;;;;;;;14.40;13.27;;;12.00;72.10;;;;;;5054568;28;20231;-87
2023/06/15 02:36:08;;;;;;;14.90;13.40;;;12.00;72.50;;;;;;5054979;28;20183;-87
2023/06/15 02:38:37;;;;;;;13.73;12.30;;;11.90;72.80;;;;;;5055069;28;20266;-87
2023/06/15 02:41:02;;;;;;;16.20;12.43;;;11.80;73.00;;;;;;5053730;28;20176;-87
2023/06/15 02:43:28;;;;;;;13.00;11.63;;;11.70;73.20;;;;;;5053446;28;20203;-87
2023/06/15 02:45:53;;;;;;;13.10;11.33;;;11.80;73.40;;;;;;5053575;28;20180;-87
2023/06/15 02:48:19;;;;;;;12.80;11.53;;;11.80;73.50;;;;;;5054846;28;20183;-87
2023/06/15 02:50:44;;;;;;;13.87;11.43;;;11.70;73.50;;;;;;5053373;28;20200;-87
2023/06/15 02:53:12;;;;;;;19.37;12.10;;;11.70;73.60;;;;;;5053394;28;20246;-87
2023/06/15 02:55:38;;;;;;;13.30;11.90;;;11.70;73.60;;;;;;5053519;28;20616;-87
2023/06/15 02:58:03;;;;;;;14.90;11.17;;;11.70;73.70;;;;;;5054700;28;20164;-87
2023/06/15 03:00:29;;;;;;;13.30;12.03;;;11.70;73.60;;;;;;5054670;28;20176;-87
2023/06/15 03:02:55;;;;;;;15.33;12.20;;;11.70;73.60;;;;;;5053145;28;20196;-87
2023/06/15 03:05:22;;;;;;;19.07;12.60;;;11.70;73.60;;;;;;5053259;28;20172;-87
2023/06/15 03:07:48;;;;;;;14.90;11.77;;;11.70;73.60;;;;;;5053460;28;20187;-87
2023/06/15 03:10:13;;;;;;;21.13;12.57;;;11.70;73.70;;;;;;5052995;28;20192;-87
2023/06/15 03:12:39;;;;;;;14.03;11.87;;;11.70;73.70;;;;;;5053039;28;20192;-87
2023/06/15 03:15:06;;;;;;;13.37;11.77;;;11.70;73.50;;;;;;5053098;28;20176;-87
2023/06/15 03:17:32;;;;;;;20.23;11.93;;;11.70;73.40;;;;;;5054477;28;20168;-88
2023/06/15 03:19:58;;;;;;;12.90;11.83;;;11.60;73.30;;;;;;5054217;28;20171;-87
2023/06/15 03:22:25;;;;;;;13.37;12.17;;;11.50;73.40;;;;;;5054371;28;20204;-88
2023/06/15 03:24:54;;;;;;;13.30;11.97;;;11.50;73.40;;;;;;5052924;28;20180;-87
2023/06/15 03:27:20;;;;;;;12.13;11.23;;;11.60;73.40;;;;;;5054083;28;20251;-87
2023/06/15 03:29:49;;;;;;;12.87;11.67;;;11.60;73.40;;;;;;5053734;28;20808;-87
2023/06/15 03:32:15;;;;;;;12.63;11.67;;;11.60;73.40;;;;;;5053913;28;20188;-87
2023/06/15 03:34:41;;;;;;;13.90;12.90;;;11.70;73.40;;;;;;5052727;28;20172;-87
2023/06/15 03:37:06;;;;;;;14.20;12.87;;;11.60;73.30;;;;;;5053980;28;20187;-87
2023/06/15 03:39:32;;;;;;;13.20;12.00;;;11.50;73.40;;;;;;5052914;28;20173;-87
2023/06/15 03:41:58;;;;;;;15.50;14.00;;;11.40;73.40;;;;;;5052410;28;20230;-87
2023/06/15 03:44:23;;;;;;;13.73;12.83;;;11.40;74.70;;;;;;5052519;28;20666;-87
2023/06/15 03:46:49;;;;;;;14.33;12.57;;;11.40;76.00;;;;;;5052491;28;20621;-87
2023/06/15 03:49:15;;;;;;;14.60;13.10;;;11.40;76.40;;;;;;5053646;28;20211;-87
2023/06/15 03:51:40;;;;;;;14.03;12.83;;;11.50;76.50;;;;;;5052761;28;20727;-88
2023/06/15 03:54:06;;;;;;;14.07;12.80;;;11.50;76.70;;;;;;5052439;28;20692;-87
2023/06/15 03:56:32;;;;;;;13.70;12.60;;;11.50;77.10;;;;;;5051880;28;20233;-87
2023/06/15 03:58:57;;;;;;;14.20;12.77;;;11.60;77.20;;;;;;5053652;28;20200;-87
2023/06/15 04:01:24;;;;;;;13.30;12.20;;;11.80;77.10;;;;;;5052407;28;20246;-87
2023/06/15 04:03:50;;;;;;;12.97;12.03;;;11.90;76.40;;;;;;5053588;28;20185;-87
2023/06/15 04:06:16;;;;;;;14.57;13.27;;;12.20;76.00;;;;;;5052369;28;20254;-87
2023/06/15 04:08:43;;;;;;;18.60;11.07;;;12.40;75.30;;;;;;5052997;28;20199;-88
2023/06/15 04:11:08;;;;;;;13.17;11.97;;;12.70;74.90;;;;;;5052172;28;20203;-87
2023/06/15 04:13:35;;;;;;;12.10;11.20;;;12.90;74.20;;;;;;5052121;28;20207;-87
2023/06/15 04:16:00;;;;;;;12.07;11.13;;;12.90;73.90;;;;;;5052173;28;20180;-88
2023/06/15 04:18:26;;;;;;;12.53;10.77;;;13.00;73.80;;;;;;5052180;28;20172;-87
2023/06/15 04:20:52;;;;;;;12.90;10.57;;;12.90;73.60;;;;;;5051953;28;20710;-87
2023/06/15 04:23:17;;;;;;;12.00;11.10;;;12.80;74.10;;;;;;5051927;28;20215;-87
2023/06/15 04:25:43;;;;;;;11.37;10.53;;;12.80;74.60;;;;;;5051927;28;20646;-87
2023/06/15 04:28:12;;;;;;;10.57;9.87;;;12.80;74.70;;;;;;5051740;28;20184;-87
2023/06/15 04:30:40;;;;;;;10.70;9.70;;;12.90;74.80;;;;;;5051717;28;20215;-87
2023/06/15 04:33:07;;;;;;;10.10;9.40;;;12.90;74.80;;;;;;5051724;28;20198;-87
2023/06/15 04:35:34;;;;;;;11.50;10.30;;;12.80;74.70;;;;;;5056597;28;20646;-87
2023/06/15 04:38:04;;;;;;;11.60;10.50;;;12.80;74.70;;;;;;5051751;28;20182;-88
2023/06/15 04:40:30;;;;;;;12.37;10.97;;;12.90;74.70;;;;;;5051747;28;20171;-87
2023/06/15 04:42:57;;;;;;;11.80;10.17;;;12.80;74.60;;;;;;5051687;28;20195;-87
2023/06/15 04:45:23;;;;;;;10.83;9.87;;;12.80;74.80;;;;;;5052260;28;20172;-87
2023/06/15 04:47:49;;;;;;;11.47;10.57;;;12.90;74.90;;;;;;5053199;28;20251;-88
2023/06/15 04:50:14;;;;;;;11.60;10.70;;;12.80;74.80;;;;;;5051516;28;20753;-88
2023/06/15 04:52:40;;;;;;;10.53;9.73;;;12.80;74.90;;;;;;5051500;28;20187;-87
2023/06/15 04:55:07;;;;;;;12.47;11.43;;;12.80;74.90;;;;;;5051666;28;20174;-87
2023/06/15 04:57:32;;;;;;;13.80;10.87;;;12.80;74.90;;;;;;5051561;28;20179;-87
2023/06/15 04:59:58;;;;;;;12.50;11.30;;;12.80;75.10;;;;;;5051506;28;20701;-87
2023/06/15 05:02:23;;;;;;;19.53;12.17;;;12.80;75.20;;;;;;5051364;28;20568;-87
2023/06/15 05:04:49;;;;;;;12.23;11.13;;;12.80;75.30;;;;;;5052856;28;20567;-88
2023/06/15 05:07:14;;;;;;;13.20;11.73;;;12.90;75.30;;;;;;5055398;28;20179;-88
2023/06/15 05:09:40;;;;;;;11.57;10.57;;;12.90;75.80;;;;;;5056570;28;20668;-88
2023/06/15 05:12:06;;;;;;;10.57;9.57;;;12.90;76.90;;;;;;5055338;28;20229;-87
2023/06/15 05:14:32;;;;;;;10.93;8.60;;;13.10;77.00;;;;;;5056695;28;20221;-88
2023/06/15 05:17:03;;;;;;;12.90;8.43;;;13.20;77.90;;;;;;5055663;28;20176;-88
2023/06/15 05:19:28;;;;;;;9.43;7.93;;;13.40;78.20;;;;;;5056816;28;20626;-87
2023/06/15 05:21:58;;;;;;;10.10;8.13;;;13.50;78.10;;;;;;5055215;28;20271;-87
2023/06/15 05:24:24;;;;;;;9.50;8.50;;;13.50;78.00;;;;;;5055387;28;20856;-88
2023/06/15 05:26:50;;;;;;;9.07;8.17;;;13.70;77.70;;;;;;5056410;28;20173;-88
2023/06/15 05:29:15;;;;;;;19.20;9.37;;;13.80;77.40;;;;;;5056537;28;20211;-88
2023/06/15 05:31:41;;;;;;;12.33;8.23;;;14.00;76.90;;;;;;5054987;28;20721;-88
2023/06/15 05:34:06;;;;;;;9.20;8.37;;;14.20;76.50;;;;;;5054813;28;20219;-87
2023/06/15 05:36:33;;;;;;;8.90;7.80;;;14.50;76.20;;;;;;5056159;28;20203;-88
2023/06/15 05:38:59;;;;;;;9.10;8.30;;;14.60;76.00;;;;;;5054844;28;20263;-87
2023/06/15 05:41:24;;;;;;;11.13;8.63;;;14.80;75.80;;;;;;5054777;28;20302;-87
2023/06/15 05:43:50;;;;;;;15.80;9.18;;;15.10;75.50;;;;;;5054683;28;20192;-88
2023/06/15 05:46:15;;;;;;;9.00;8.30;;;15.30;74.40;;;;;;5054724;28;20168;-88
2023/06/15 05:48:41;;;;;;;9.95;9.05;;;15.40;74.30;;;;;;5054774;28;20176;-88
2023/06/15 05:51:06;;;;;;;10.20;9.20;;;15.60;73.30;;;;;;5054593;28;20204;-88
2023/06/15 05:53:32;;;;;;;11.13;10.15;;;15.70;72.50;;;;;;5056059;28;20553;-87
2023/06/15 05:55:57;;;;;;;14.60;10.07;;;16.10;71.00;;;;;;5055733;28;20188;-87
2023/06/15 05:58:23;;;;;;;15.68;10.27;;;16.30;70.60;;;;;;5055930;28;20177;-88
2023/06/15 06:00:49;;;;;;;12.50;10.45;;;16.50;69.30;;;;;;5054492;28;20560;-88
2023/06/15 06:03:14;;;;;;;13.23;11.93;;;16.70;69.70;;;;;;5054501;28;20200;-87
2023/06/15 06:05:40;;;;;;;13.23;11.38;;;16.90;68.60;;;;;;5055667;28;20265;-88
2023/06/15 06:08:05;;;;;;;13.10;11.80;;;17.00;68.90;;;;;;5056207;28;20179;-88
2023/06/15 06:10:31;;;;;;;12.77;11.68;;;17.10;68.60;;;;;;5054575;28;20200;-88
2023/06/15 06:12:56;;;;;;;14.07;12.55;;;17.20;68.10;;;;;;5054211;28;20567;-88
2023/06/15 06:15:22;;;;;;;14.68;13.10;;;17.30;67.00;;;;;;5055693;28;20646;-88
2023/06/15 06:17:47;;;;;;;14.80;13.15;;;17.40;65.90;;;;;;5053582;28;20642;-88
2023/06/15 06:20:13;;;;;;;17.88;14.23;;;17.50;65.80;;;;;;5055225;28;20195;-88
2023/06/15 06:22:38;;;;;;;15.52;14.23;;;17.60;65.90;;;;;;5055515;28;20192;-86
2023/06/15 06:25:05;;;;;;;15.57;14.23;;;17.80;64.40;;;;;;5053996;28;20217;-88
2023/06/15 06:27:30;;;;;;;19.20;15.35;;;18.00;63.20;;;;;;5053932;28;20550;-87
2023/06/15 06:29:58;;;;;;;16.02;14.70;;;18.10;62.50;;;;;;5053664;28;20207;-87
2023/06/15 06:32:23;;;;;;;16.90;14.07;;;18.20;63.70;;;;;;5055057;28;20184;-88
2023/06/15 06:34:49;;;;;;;16.73;14.98;;;18.30;64.00;;;;;;5055131;28;20177;-88
2023/06/15 06:37:14;;;;;;;16.10;14.68;;;18.50;62.00;;;;;;5053785;28;20546;-89
2023/06/15 06:39:40;;;;;;;15.30;13.77;;;18.60;61.40;;;;;;5054979;28;20183;-88
2023/06/15 06:42:06;;;;;;;18.02;13.90;;;18.70;61.20;;;;;;5055509;28;20179;-88
2023/06/15 06:44:31;;;;;;;16.92;13.77;;;18.70;61.20;;;;;;5053662;28;20176;-89
2023/06/15 06:46:57;;;;;;;18.23;13.50;;;18.80;61.30;;;;;;5055237;28;20172;-88
2023/06/15 06:49:23;;;;;;;15.65;14.15;;;18.90;59.60;;;;;;5053526;28;20245;-88
2023/06/15 06:51:51;;;;;;;14.85;13.35;;;19.00;58.60;;;;;;5054877;28;20666;-88
2023/06/15 06:54:16;;;;;;;14.70;13.38;;;19.00;59.60;;;;;;5053447;28;20598;-88
2023/06/15 06:56:42;;;;;;;14.02;12.82;;;19.20;58.50;;;;;;5053562;28;20167;-88
2023/06/15 06:59:07;;;;;;;13.50;12.30;;;19.30;57.00;;;;;;5053579;28;20176;-89
2023/06/15 07:01:33;;;;;;;12.73;11.82;;;19.40;57.30;;;;;;5053654;28;20168;-88
2023/06/15 07:03:59;;;;;;;16.35;13.60;;;19.60;55.30;;;;;;5053346;28;20199;-88
2023/06/15 07:06:24;;;;;;;13.73;12.50;;;19.60;55.30;;;;;;5054582;28;20249;-88
2023/06/15 07:08:50;;;;;;;13.52;11.43;;;19.50;55.50;;;;;;5053233;28;20251;-88
2023/06/15 07:11:16;;;;;;;28.75;12.90;;;19.40;56.70;;;;;;5053039;28;20209;-88
2023/06/15 07:13:41;;;;;;;22.25;13.05;;;19.30;57.90;;;;;;5053074;28;20238;-88
2023/06/15 07:16:07;;;;;;;18.17;12.60;;;19.40;58.10;;;;;;5053076;28;20233;-88
2023/06/15 07:18:32;;;;;;;18.50;11.80;;;19.60;57.70;;;;;;5054818;28;20221;-88
2023/06/15 07:20:58;;;;;;;16.85;12.85;;;19.60;57.50;;;;;;5053020;28;20172;-88
2023/06/15 07:23:25;;;;;;;23.58;12.43;;;19.70;58.00;;;;;;5054207;28;20254;-89
2023/06/15 07:25:52;;;;;;;12.68;11.50;;;19.70;56.70;;;;;;5054182;28;20168;-90
2023/06/15 07:28:18;;;;;;;14.00;12.35;;;19.80;55.90;;;;;;5052757;28;20188;-91
2023/06/15 07:30:46;;;;;;;13.68;11.95;;;20.00;56.90;;;;;;5053132;28;20184;-90
2023/06/15 07:33:11;;;;;;;19.05;12.48;;;20.10;57.10;;;;;;5053924;28;20257;-89
2023/06/15 07:35:37;;;;;;;14.65;12.10;;;20.20;57.80;;;;;;5053160;28;20175;-89
2023/06/15 07:38:03;;;;;;;14.30;12.88;;;20.20;58.10;;;;;;5052852;28;20172;-89
2023/06/15 07:40:29;;;;;;;13.60;12.18;;;20.30;58.20;;;;;;5053794;28;20179;-89
2023/06/15 07:42:54;;;;;;;18.70;13.52;;;20.40;57.80;;;;;;5052590;28;20238;-89
2023/06/15 07:45:20;;;;;;;14.00;12.68;;;20.40;59.00;;;;;;5052677;28;20215;-89
2023/06/15 07:47:45;;;;;;;21.65;12.57;;;20.70;57.60;;;;;;5052640;28;20183;-89
2023/06/15 07:50:11;;;;;;;16.35;12.68;;;20.90;56.90;;;;;;5052334;28;20196;-88
2023/06/15 07:52:36;;;;;;;15.00;12.57;;;21.00;55.50;;;;;;5053534;28;20192;-89
2023/06/15 07:55:04;;;;;;;13.75;11.95;;;21.20;54.50;;;;;;5052256;28;20550;-89
2023/06/15 07:57:30;;;;;;;14.65;13.15;;;21.20;55.50;;;;;;5052111;28;20732;-89
2023/06/15 07:59:56;;;;;;;13.13;12.02;;;21.30;54.90;;;;;;5052113;28;20195;-89
2023/06/15 08:02:22;;;;;;;13.10;11.90;;;21.40;54.70;;;;;;5052006;28;20337;-89
2023/06/15 08:04:47;;;;;;;13.35;12.25;;;21.20;54.60;;;;;;5052220;28;20203;-89
2023/06/15 08:07:13;;;;;;;14.35;11.40;;;21.20;54.60;;;;;;5052642;28;20310;-88
2023/06/15 08:09:39;;;;;;;12.60;11.40;;;21.30;53.80;;;;;;5052078;28;20249;-88
2023/06/15 08:12:05;;;;;;;12.48;11.38;;;21.40;53.30;;;;;;5053832;28;20207;-86
2023/06/15 08:14:30;;;;;;;12.13;11.00;;;21.50;52.20;;;;;;5052095;28;20168;-86
2023/06/15 08:16:56;;;;;;;10.75;9.95;;;21.80;51.90;;;;;;5052046;28;20213;-86
2023/06/15 08:19:21;;;;;;;12.13;11.07;;;22.10;49.10;;;;;;5052014;28;20238;-87
2023/06/15 08:21:47;;;;;;;13.18;10.75;;;22.20;49.20;;;;;;5053108;28;20188;-87
2023/06/15 08:24:13;;;;;;;12.38;10.68;;;22.00;49.40;;;;;;5051842;28;20207;-89
2023/06/15 08:26:38;;;;;;;11.85;10.73;;;21.80;49.70;;;;;;5053141;28;20211;-87
2023/06/15 08:29:04;;;;;;;16.20;11.75;;;21.90;50.60;;;;;;5051967;28;20188;-87
2023/06/15 08:31:30;;;;;;;17.17;12.43;;;21.90;50.70;;;;;;5053076;28;20178;-87
2023/06/15 08:33:56;;;;;;;13.52;12.20;;;22.10;51.40;;;;;;5051651;28;20192;-86
2023/06/15 08:36:22;;;;;;;12.98;11.82;;;22.30;50.20;;;;;;5051815;28;20657;-87
2023/06/15 08:38:48;;;;;;;15.00;12.15;;;22.40;50.70;;;;;;5052995;28;20188;-87
2023/06/15 08:41:14;;;;;;;13.63;12.43;;;22.60;50.70;;;;;;5051467;28;20709;-88
2023/06/15 08:43:43;;;;;;;12.43;11.52;;;22.40;52.50;;;;;;5051678;28;20196;-85
2023/06/15 08:46:10;;;;;;;13.45;12.18;;;22.40;52.60;;;;;;5052906;28;20163;-87
2023/06/15 08:48:38;;;;;;;13.23;12.00;;;22.50;53.10;;;;;;5052561;28;20172;-87
2023/06/15 08:51:05;;;;;;;13.02;12.13;;;22.80;51.10;;;;;;5051590;28;20230;-86
2023/06/15 08:53:32;;;;;;;13.52;12.00;;;22.80;50.80;;;;;;5052771;28;20191;-87
2023/06/15 08:55:58;;;;;;;14.95;11.73;;;22.90;50.80;;;;;;5051894;28;20206;-87
2023/06/15 08:58:23;;;;;;;12.80;11.55;;;22.80;49.80;;;;;;5052955;28;20653;-87
2023/06/15 09:00:50;;;;;;;12.18;11.13;;;22.70;48.10;;;;;;5051621;28;20203;-87
2023/06/15 09:03:18;;;;;;;13.15;11.40;;;22.80;49.90;;;;;;5052755;28;20192;-87
2023/06/15 09:05:43;;;;;;;14.32;11.25;;;22.80;48.70;;;;;;5052683;28;20168;-87
2023/06/15 09:08:09;;;;;;;12.82;11.82;;;22.80;46.10;;;;;;5051924;28;20714;-86
2023/06/15 09:10:37;;;;;;;13.45;12.10;;;22.80;43.50;;;;;;5051829;28;20257;-87
2023/06/15 09:13:03;;;;;;;21.25;12.15;;;22.90;44.60;;;;;;5051465;28;20207;-88
2023/06/15 09:15:30;;;;;;;12.95;11.75;;;22.80;45.40;;;;;;5052953;28;20172;-88
2023/06/15 09:18:00;;;;;;;13.52;12.30;;;23.00;44.90;;;;;;5051740;28;20259;-88
2023/06/15 09:20:31;;;;;;;12.57;11.40;;;23.00;45.90;;;;;;5052686;28;20215;-88
2023/06/15 09:22:58;;;;;;;12.85;11.85;;;23.20;42.70;;;;;;5052864;28;20188;-87
2023/06/15 09:25:24;;;;;;;12.93;11.52;;;23.20;44.30;;;;;;5052610;28;20168;-87
2023/06/15 09:28:06;;;;;;;20.15;12.80;;;23.40;44.10;;;;;;5051512;28;20270;-90
2023/06/15 09:30:37;;;;;;;13.50;12.50;;;23.50;42.50;;;;;;5051610;28;20180;-88
2023/06/15 09:33:18;;;;;;;15.00;11.63;;;23.50;42.80;;;;;;5052402;28;20283;-88
2023/06/15 09:36:02;;;;;;;12.95;11.68;;;23.50;43.60;;;;;;5051382;28;20676;-87
2023/06/15 09:38:40;;;;;;;14.00;12.75;;;23.50;44.90;;;;;;5051143;28;20654;-85
2023/06/15 09:41:07;;;;;;;15.40;12.32;;;23.60;43.90;;;;;;5051202;28;20674;-87
2023/06/15 09:43:34;;;;;;;14.15;13.15;;;23.70;44.10;;;;;;5051097;28;20255;-86
2023/06/15 09:46:12;;;;;;;16.05;12.52;;;23.70;41.40;;;;;;5051227;28;20200;-87
2023/06/15 09:48:39;;;;;;;13.77;12.45;;;24.00;42.70;;;;;;5051212;28;20164;-87
2023/06/15 09:51:05;;;;;;;14.60;13.50;;;24.20;42.90;;;;;;5052590;28;20188;-87
2023/06/15 09:53:31;;;;;;;13.43;12.07;;;24.40;40.80;;;;;;5052395;28;20276;-87
2023/06/15 09:55:58;;;;;;;12.32;11.43;;;24.60;42.50;;;;;;5056039;28;20172;-87
2023/06/15 09:58:24;;;;;;;12.88;11.77;;;24.70;40.80;;;;;;5055918;28;20665;-88
2023/06/15 10:00:52;;;;;;;12.80;11.50;;;24.70;41.30;;;;;;5056118;28;20196;-86
2023/06/15 10:03:22;;;;;;;11.60;10.50;;;24.60;37.30;;;;;;5054692;28;20195;-86
2023/06/15 10:05:54;;;;;;;12.60;11.20;;;24.50;36.90;;;;;;5054872;28;20172;-87
2023/06/15 10:08:24;;;;;;;12.55;11.45;;;24.30;37.40;;;;;;5054488;28;20168;-87
2023/06/15 10:10:51;;;;;;;12.30;11.13;;;24.30;36.80;;;;;;5054289;28;20187;-87
2023/06/15 10:13:27;;;;;;;12.50;11.27;;;24.50;38.00;;;;;;5054299;28;20195;-87
2023/06/15 10:15:55;;;;;;;11.95;10.77;;;24.60;35.60;;;;;;5054270;28;20180;-87
2023/06/15 10:18:22;;;;;;;11.90;11.00;;;24.60;37.20;;;;;;5054286;28;20206;-87
2023/06/15 10:20:53;;;;;;;11.90;11.00;;;24.60;36.00;;;;;;5054444;28;20603;-87
2023/06/15 10:23:27;;;;;;;12.10;11.00;;;24.40;35.80;;;;;;5054018;28;20188;-87
2023/06/15 10:25:55;;;;;;;12.18;11.00;;;24.30;37.60;;;;;;5054212;28;20168;-87
2023/06/15 10:28:25;;;;;;;12.00;10.80;;;24.30;38.70;;;;;;5054115;28;20639;-87
2023/06/15 10:31:09;;;;;;;12.10;11.20;;;24.30;38.60;;;;;;5054094;28;20168;-86
2023/06/15 10:33:57;;;;;;;12.20;11.20;;;24.30;38.70;;;;;;5053991;28;20298;-86
2023/06/15 10:36:28;;;;;;;18.23;11.52;;;24.30;39.50;;;;;;5055177;28;20661;-87
2023/06/15 10:39:15;;;;;;;12.45;11.48;;;24.20;40.20;;;;;;5053841;28;20172;-87
2023/06/15 10:41:43;;;;;;;16.50;11.73;;;23.90;41.20;;;;;;5053804;28;20187;-87
2023/06/15 10:44:13;;;;;;;12.55;11.45;;;23.70;41.90;;;;;;5053693;28;20283;-88
2023/06/15 10:46:38;;;;;;;21.75;11.77;;;23.50;43.10;;;;;;5055406;28;20163;-88
2023/06/15 10:49:06;;;;;;;13.90;12.70;;;23.30;43.40;;;;;;5053769;28;20673;-89
2023/06/15 10:51:38;;;;;;;19.20;17.63;;;23.20;43.40;;;;;;5054867;28;20222;-89
2023/06/15 10:54:05;;;;;;;19.52;17.75;;;23.30;43.70;;;;;;5053775;28;20195;-90
2023/06/15 10:56:31;;;;;;;14.90;13.02;;;23.50;43.50;;;;;;5054203;28;20274;-88
2023/06/15 10:58:58;;;;;;;16.10;13.43;;;23.60;43.50;;;;;;5053871;28;20271;-87
2023/06/15 11:01:26;;;;;;;15.93;14.07;;;23.60;43.40;;;;;;5053920;28;20253;-88
2023/06/15 11:03:54;;;;;;;16.48;14.43;;;23.40;45.00;;;;;;5054932;28;20222;-87
2023/06/15 11:06:22;;;;;;;22.52;20.13;;;23.60;43.90;;;;;;5054095;28;20219;-87
2023/06/15 11:08:52;;;;;;;23.05;20.33;;;23.70;43.90;;;;;;5055205;28;20168;-87
2023/06/15 11:11:32;;;;;;;22.10;20.50;;;23.70;44.60;;;;;;5053897;28;20176;-87
2023/06/15 11:14:20;;;;;;;21.95;20.13;;;23.80;43.60;;;;;;5053478;28;20662;-88
2023/06/15 11:17:00;;;;;;;22.38;20.88;;;23.80;43.80;;;;;;5053789;28;20172;-87
2023/06/15 11:19:25;;;;;;;21.27;19.50;;;23.80;44.50;;;;;;5053744;28;20246;-87
2023/06/15 11:22:01;;;;;;;13.23;11.90;;;23.80;45.00;;;;;;5053731;28;20548;-88
2023/06/15 11:24:33;;;;;;;13.05;11.80;;;23.90;44.60;;;;;;5053887;28;20744;-87
2023/06/15 11:27:02;;;;;;;12.60;11.60;;;23.90;45.30;;;;;;5053517;28;20192;-87
2023/06/15 11:29:32;;;;;;;12.98;11.70;;;24.10;45.20;;;;;;5054552;28;20266;-87
2023/06/15 11:32:03;;;;;;;13.15;11.90;;;24.10;45.90;;;;;;5054398;28;20152;-87
2023/06/15 11:34:33;;;;;;;17.40;12.10;;;24.00;45.80;;;;;;5053543;28;20160;-87
2023/06/15 11:37:00;;;;;;;13.15;11.88;;;24.10;46.20;;;;;;5054532;28;20172;-87
2023/06/15 11:39:27;;;;;;;13.48;12.32;;;24.20;45.80;;;;;;5052925;28;20700;-87
2023/06/15 11:41:53;;;;;;;14.35;13.00;;;24.40;47.10;;;;;;5052791;28;20314;-86
2023/06/15 11:44:21;;;;;;;12.75;11.82;;;24.70;47.10;;;;;;5053930;28;20190;-85
2023/06/15 11:46:57;;;;;;;12.90;11.57;;;24.70;46.10;;;;;;5053924;28;20164;-86
2023/06/15 11:49:23;;;;;;;15.55;12.18;;;24.70;46.30;;;;;;5052874;28;20183;-86
2023/06/15 11:51:51;;;;;;;13.80;12.27;;;25.00;43.20;;;;;;5052523;28;20660;-87
2023/06/15 11:54:17;;;;;;;19.10;12.20;;;24.90;42.10;;;;;;5052358;28;20179;-87
2023/06/15 11:56:47;;;;;;;15.70;12.32;;;24.70;42.40;;;;;;5054259;28;20456;-87
2023/06/15 11:59:15;;;;;;;12.93;11.75;;;24.50;42.40;;;;;;5052193;28;20195;-86
2023/06/15 12:01:41;;;;;;;26.90;12.68;;;24.30;42.90;;;;;;5053557;28;20669;-86
2023/06/15 12:04:13;;;;;;;13.20;11.98;;;24.00;42.90;;;;;;5052540;28;20195;-88
2023/06/15 12:06:40;;;;;;;13.98;12.02;;;23.90;42.50;;;;;;5052936;28;20601;-89
2023/06/15 12:09:07;;;;;;;13.75;12.32;;;24.00;42.80;;;;;;5052387;28;20192;-90
2023/06/15 12:11:33;;;;;;;12.82;11.93;;;24.00;43.70;;;;;;5053568;28;20174;-89
2023/06/15 12:14:05;;;;;;;12.98;11.88;;;24.00;42.90;;;;;;5052084;28;20199;-90
2023/06/15 12:16:30;;;;;;;13.25;11.90;;;23.80;42.60;;;;;;5051649;28;20222;-89
2023/06/15 12:19:01;;;;;;;13.35;12.15;;;23.80;42.90;;;;;;5052571;28;20207;-89
2023/06/15 12:22:08;;;;;;;13.40;12.13;;;23.80;42.80;;;;;;5053758;28;20180;-90
2023/06/15 12:24:38;;;;;;;13.80;12.65;;;23.80;43.10;;;;;;5053493;28;20183;-89
2023/06/15 12:27:15;;;;;;;13.70;11.88;;;23.80;44.00;;;;;;5053292;28;20199;-89
2023/06/15 12:29:41;;;;;;;13.35;12.15;;;23.60;45.10;;;;;;5052908;28;20211;-87